sensor_id;sensor_type;location;lat;lon;timestamp;P1;durP1;ratioP1;P2;durP2;ratioP2
14584;SDS011;7379;51.506;11.876;2023-03-16T00:01:06;4.60;;;3.20;;
14584;SDS011;7379;51.506;11.876;2023-03-16T00:03:35;5.43;;;3.00;;
14584;SDS011;7379;51.506;11.876;2023-03-16T00:06:02;4.30;;;2.70;;
14584;SDS011;7379;51.506;11.876;2023-03-16T00:08:29;5.13;;;3.03;;
14584;SDS011;7379;51.506;11.876;2023-03-16T00:10:56;4.77;;;2.90;;
14584;SDS011;7379;51.506;11.876;2023-03-16T00:13:23;4.20;;;3.03;;
14584;SDS011;7379;51.506;11.876;2023-03-16T00:15:50;4.43;;;3.10;;
14584;SDS011;7379;51.506;11.876;2023-03-16T00:18:19;5.33;;;3.03;;
14584;SDS011;7379;51.506;11.876;2023-03-16T00:20:50;7.17;;;3.10;;
14584;SDS011;7379;51.506;11.876;2023-03-16T00:23:19;7.13;;;3.17;;
14584;SDS011;7379;51.506;11.876;2023-03-16T00:25:51;4.33;;;3.00;;
14584;SDS011;7379;51.506;11.876;2023-03-16T00:28:19;7.77;;;3.10;;
14584;SDS011;7379;51.506;11.876;2023-03-16T00:30:46;7.47;;;3.50;;
14584;SDS011;7379;51.506;11.876;2023-03-16T00:33:13;5.53;;;3.60;;
14584;SDS011;7379;51.506;11.876;2023-03-16T00:35:41;8.13;;;3.47;;
14584;SDS011;7379;51.506;11.876;2023-03-16T00:38:15;7.47;;;3.33;;
14584;SDS011;7379;51.506;11.876;2023-03-16T00:40:42;6.30;;;3.07;;
14584;SDS011;7379;51.506;11.876;2023-03-16T00:43:10;6.17;;;3.27;;
14584;SDS011;7379;51.506;11.876;2023-03-16T00:45:37;4.47;;;3.13;;
14584;SDS011;7379;51.506;11.876;2023-03-16T00:48:03;7.17;;;3.30;;
14584;SDS011;7379;51.506;11.876;2023-03-16T00:50:30;9.57;;;3.30;;
14584;SDS011;7379;51.506;11.876;2023-03-16T00:52:57;7.20;;;3.17;;
14584;SDS011;7379;51.506;11.876;2023-03-16T00:55:25;6.27;;;3.17;;
14584;SDS011;7379;51.506;11.876;2023-03-16T00:57:52;6.30;;;3.43;;
14584;SDS011;7379;51.506;11.876;2023-03-16T01:00:19;6.40;;;2.97;;
14584;SDS011;7379;51.506;11.876;2023-03-16T01:02:49;4.17;;;3.13;;
14584;SDS011;7379;51.506;11.876;2023-03-16T01:05:16;5.53;;;3.00;;
14584;SDS011;7379;51.506;11.876;2023-03-16T01:07:43;4.97;;;3.40;;
14584;SDS011;7379;51.506;11.876;2023-03-16T01:10:10;9.07;;;3.00;;
14584;SDS011;7379;51.506;11.876;2023-03-16T01:12:39;6.87;;;3.43;;
14584;SDS011;7379;51.506;11.876;2023-03-16T01:15:06;5.07;;;3.10;;
14584;SDS011;7379;51.506;11.876;2023-03-16T01:17:34;7.43;;;3.07;;
14584;SDS011;7379;51.506;11.876;2023-03-16T01:20:01;6.07;;;3.50;;
14584;SDS011;7379;51.506;11.876;2023-03-16T01:22:32;5.57;;;3.17;;
14584;SDS011;7379;51.506;11.876;2023-03-16T01:24:58;4.40;;;3.07;;
14584;SDS011;7379;51.506;11.876;2023-03-16T01:27:25;4.77;;;3.30;;
14584;SDS011;7379;51.506;11.876;2023-03-16T01:29:54;4.50;;;3.20;;
14584;SDS011;7379;51.506;11.876;2023-03-16T01:32:20;5.80;;;3.10;;
14584;SDS011;7379;51.506;11.876;2023-03-16T01:34:47;5.97;;;3.40;;
14584;SDS011;7379;51.506;11.876;2023-03-16T01:37:14;5.47;;;3.27;;
14584;SDS011;7379;51.506;11.876;2023-03-16T01:39:41;5.20;;;3.00;;
14584;SDS011;7379;51.506;11.876;2023-03-16T01:42:08;5.13;;;3.23;;
14584;SDS011;7379;51.506;11.876;2023-03-16T01:44:48;5.80;;;3.03;;
14584;SDS011;7379;51.506;11.876;2023-03-16T01:47:19;4.40;;;3.20;;
14584;SDS011;7379;51.506;11.876;2023-03-16T01:49:47;5.60;;;3.20;;
14584;SDS011;7379;51.506;11.876;2023-03-16T01:52:20;6.43;;;3.30;;
14584;SDS011;7379;51.506;11.876;2023-03-16T01:54:50;5.00;;;3.10;;
14584;SDS011;7379;51.506;11.876;2023-03-16T01:57:20;3.60;;;3.00;;
14584;SDS011;7379;51.506;11.876;2023-03-16T01:59:49;4.73;;;3.10;;
14584;SDS011;7379;51.506;11.876;2023-03-16T02:02:21;6.53;;;3.23;;
14584;SDS011;7379;51.506;11.876;2023-03-16T02:04:51;4.57;;;3.10;;
14584;SDS011;7379;51.506;11.876;2023-03-16T02:07:22;6.80;;;3.17;;
14584;SDS011;7379;51.506;11.876;2023-03-16T02:09:53;4.73;;;3.20;;
14584;SDS011;7379;51.506;11.876;2023-03-16T02:12:22;5.13;;;3.10;;
14584;SDS011;7379;51.506;11.876;2023-03-16T02:14:49;4.83;;;3.10;;
14584;SDS011;7379;51.506;11.876;2023-03-16T02:17:17;6.97;;;3.00;;
14584;SDS011;7379;51.506;11.876;2023-03-16T02:19:48;6.43;;;3.10;;
14584;SDS011;7379;51.506;11.876;2023-03-16T02:22:22;4.40;;;3.23;;
14584;SDS011;7379;51.506;11.876;2023-03-16T02:24:49;5.57;;;3.10;;
14584;SDS011;7379;51.506;11.876;2023-03-16T02:27:18;5.37;;;2.90;;
14584;SDS011;7379;51.506;11.876;2023-03-16T02:29:53;5.03;;;3.00;;
14584;SDS011;7379;51.506;11.876;2023-03-16T02:32:25;4.87;;;2.80;;
14584;SDS011;7379;51.506;11.876;2023-03-16T02:34:54;5.27;;;3.10;;
14584;SDS011;7379;51.506;11.876;2023-03-16T02:37:23;5.57;;;3.40;;
14584;SDS011;7379;51.506;11.876;2023-03-16T02:39:51;4.13;;;3.40;;
14584;SDS011;7379;51.506;11.876;2023-03-16T02:42:18;5.37;;;3.13;;
14584;SDS011;7379;51.506;11.876;2023-03-16T02:44:49;4.83;;;3.03;;
14584;SDS011;7379;51.506;11.876;2023-03-16T02:47:23;4.53;;;3.17;;
14584;SDS011;7379;51.506;11.876;2023-03-16T02:49:53;6.03;;;3.10;;
14584;SDS011;7379;51.506;11.876;2023-03-16T02:52:20;5.27;;;3.30;;
14584;SDS011;7379;51.506;11.876;2023-03-16T02:54:47;4.97;;;3.00;;
14584;SDS011;7379;51.506;11.876;2023-03-16T02:57:13;5.10;;;2.90;;
14584;SDS011;7379;51.506;11.876;2023-03-16T02:59:40;6.10;;;3.20;;
14584;SDS011;7379;51.506;11.876;2023-03-16T03:02:09;4.80;;;3.13;;
14584;SDS011;7379;51.506;11.876;2023-03-16T03:04:36;3.10;;;2.70;;
14584;SDS011;7379;51.506;11.876;2023-03-16T03:07:02;5.57;;;3.30;;
14584;SDS011;7379;51.506;11.876;2023-03-16T03:09:29;4.97;;;3.00;;
14584;SDS011;7379;51.506;11.876;2023-03-16T03:11:57;4.17;;;3.13;;
14584;SDS011;7379;51.506;11.876;2023-03-16T03:14:24;4.57;;;3.00;;
14584;SDS011;7379;51.506;11.876;2023-03-16T03:16:52;4.63;;;3.27;;
14584;SDS011;7379;51.506;11.876;2023-03-16T03:19:21;4.13;;;2.97;;
14584;SDS011;7379;51.506;11.876;2023-03-16T03:21:48;5.13;;;2.80;;
14584;SDS011;7379;51.506;11.876;2023-03-16T03:24:15;3.93;;;3.20;;
14584;SDS011;7379;51.506;11.876;2023-03-16T03:26:43;5.53;;;3.10;;
14584;SDS011;7379;51.506;11.876;2023-03-16T03:29:10;4.83;;;3.10;;
14584;SDS011;7379;51.506;11.876;2023-03-16T03:31:37;5.20;;;3.10;;
14584;SDS011;7379;51.506;11.876;2023-03-16T03:34:04;5.00;;;3.00;;
14584;SDS011;7379;51.506;11.876;2023-03-16T03:36:32;4.43;;;3.40;;
14584;SDS011;7379;51.506;11.876;2023-03-16T03:38:59;6.97;;;3.50;;
14584;SDS011;7379;51.506;11.876;2023-03-16T03:41:30;5.50;;;3.10;;
14584;SDS011;7379;51.506;11.876;2023-03-16T03:43:57;6.37;;;3.30;;
14584;SDS011;7379;51.506;11.876;2023-03-16T03:46:24;4.80;;;3.00;;
14584;SDS011;7379;51.506;11.876;2023-03-16T03:48:51;4.13;;;3.10;;
14584;SDS011;7379;51.506;11.876;2023-03-16T03:51:18;4.80;;;3.07;;
14584;SDS011;7379;51.506;11.876;2023-03-16T03:53:47;4.03;;;3.20;;
14584;SDS011;7379;51.506;11.876;2023-03-16T03:56:13;5.07;;;2.90;;
14584;SDS011;7379;51.506;11.876;2023-03-16T03:58:40;5.27;;;3.20;;
14584;SDS011;7379;51.506;11.876;2023-03-16T04:01:07;5.10;;;2.97;;
14584;SDS011;7379;51.506;11.876;2023-03-16T04:03:34;7.53;;;3.30;;
14584;SDS011;7379;51.506;11.876;2023-03-16T04:06:01;5.07;;;3.00;;
14584;SDS011;7379;51.506;11.876;2023-03-16T04:08:28;3.87;;;3.10;;
14584;SDS011;7379;51.506;11.876;2023-03-16T04:10:56;5.60;;;3.27;;
14584;SDS011;7379;51.506;11.876;2023-03-16T04:13:23;5.20;;;3.10;;
14584;SDS011;7379;51.506;11.876;2023-03-16T04:15:54;4.63;;;2.87;;
14584;SDS011;7379;51.506;11.876;2023-03-16T04:18:21;4.40;;;3.03;;
14584;SDS011;7379;51.506;11.876;2023-03-16T04:20:48;4.43;;;2.97;;
14584;SDS011;7379;51.506;11.876;2023-03-16T04:23:17;5.00;;;2.90;;
14584;SDS011;7379;51.506;11.876;2023-03-16T04:25:44;5.13;;;3.10;;
14584;SDS011;7379;51.506;11.876;2023-03-16T04:28:13;4.70;;;3.20;;
14584;SDS011;7379;51.506;11.876;2023-03-16T04:30:41;4.50;;;3.20;;
14584;SDS011;7379;51.506;11.876;2023-03-16T04:33:08;6.33;;;3.33;;
14584;SDS011;7379;51.506;11.876;2023-03-16T04:35:35;6.03;;;3.33;;
14584;SDS011;7379;51.506;11.876;2023-03-16T04:38:02;4.30;;;3.00;;
14584;SDS011;7379;51.506;11.876;2023-03-16T04:40:29;4.93;;;3.70;;
14584;SDS011;7379;51.506;11.876;2023-03-16T04:42:55;5.00;;;3.30;;
14584;SDS011;7379;51.506;11.876;2023-03-16T04:45:23;5.13;;;3.53;;
14584;SDS011;7379;51.506;11.876;2023-03-16T04:47:50;5.17;;;3.33;;
14584;SDS011;7379;51.506;11.876;2023-03-16T04:50:17;5.83;;;3.10;;
14584;SDS011;7379;51.506;11.876;2023-03-16T04:52:44;4.90;;;3.17;;
14584;SDS011;7379;51.506;11.876;2023-03-16T04:55:11;4.53;;;3.30;;
14584;SDS011;7379;51.506;11.876;2023-03-16T04:57:38;4.57;;;3.23;;
14584;SDS011;7379;51.506;11.876;2023-03-16T05:00:11;4.83;;;3.20;;
14584;SDS011;7379;51.506;11.876;2023-03-16T05:02:44;4.97;;;3.13;;
14584;SDS011;7379;51.506;11.876;2023-03-16T05:05:11;5.17;;;3.40;;
14584;SDS011;7379;51.506;11.876;2023-03-16T05:07:39;5.13;;;3.30;;
14584;SDS011;7379;51.506;11.876;2023-03-16T05:10:07;5.60;;;3.13;;
14584;SDS011;7379;51.506;11.876;2023-03-16T05:12:34;5.67;;;3.30;;
14584;SDS011;7379;51.506;11.876;2023-03-16T05:15:01;4.87;;;3.23;;
14584;SDS011;7379;51.506;11.876;2023-03-16T05:17:28;4.93;;;3.33;;
14584;SDS011;7379;51.506;11.876;2023-03-16T05:19:57;7.43;;;3.50;;
14584;SDS011;7379;51.506;11.876;2023-03-16T05:22:23;7.30;;;3.30;;
14584;SDS011;7379;51.506;11.876;2023-03-16T05:24:50;4.67;;;3.57;;
14584;SDS011;7379;51.506;11.876;2023-03-16T05:27:17;6.37;;;3.40;;
14584;SDS011;7379;51.506;11.876;2023-03-16T05:29:45;4.93;;;3.30;;
14584;SDS011;7379;51.506;11.876;2023-03-16T05:32:12;4.10;;;3.17;;
14584;SDS011;7379;51.506;11.876;2023-03-16T05:34:41;6.10;;;3.73;;
14584;SDS011;7379;51.506;11.876;2023-03-16T05:37:09;4.60;;;3.50;;
14584;SDS011;7379;51.506;11.876;2023-03-16T05:39:36;6.63;;;3.70;;
14584;SDS011;7379;51.506;11.876;2023-03-16T05:42:03;4.37;;;3.47;;
14584;SDS011;7379;51.506;11.876;2023-03-16T05:44:30;7.00;;;3.53;;
14584;SDS011;7379;51.506;11.876;2023-03-16T05:46:58;7.37;;;3.63;;
14584;SDS011;7379;51.506;11.876;2023-03-16T05:49:24;4.83;;;3.50;;
14584;SDS011;7379;51.506;11.876;2023-03-16T05:51:51;4.97;;;3.70;;
14584;SDS011;7379;51.506;11.876;2023-03-16T05:54:20;6.70;;;3.60;;
14584;SDS011;7379;51.506;11.876;2023-03-16T05:56:48;5.47;;;4.37;;
14584;SDS011;7379;51.506;11.876;2023-03-16T05:59:15;5.47;;;3.80;;
14584;SDS011;7379;51.506;11.876;2023-03-16T06:01:43;5.03;;;3.70;;
14584;SDS011;7379;51.506;11.876;2023-03-16T06:04:10;6.03;;;3.53;;
14584;SDS011;7379;51.506;11.876;2023-03-16T06:06:37;5.80;;;3.83;;
14584;SDS011;7379;51.506;11.876;2023-03-16T06:09:04;5.27;;;3.80;;
14584;SDS011;7379;51.506;11.876;2023-03-16T06:11:32;5.30;;;3.90;;
14584;SDS011;7379;51.506;11.876;2023-03-16T06:13:59;5.13;;;3.67;;
14584;SDS011;7379;51.506;11.876;2023-03-16T06:16:26;4.83;;;4.13;;
14584;SDS011;7379;51.506;11.876;2023-03-16T06:18:53;5.77;;;3.70;;
14584;SDS011;7379;51.506;11.876;2023-03-16T06:21:20;4.40;;;4.00;;
14584;SDS011;7379;51.506;11.876;2023-03-16T06:23:47;5.00;;;3.90;;
14584;SDS011;7379;51.506;11.876;2023-03-16T06:26:14;5.23;;;3.87;;
14584;SDS011;7379;51.506;11.876;2023-03-16T06:28:42;6.23;;;4.43;;
14584;SDS011;7379;51.506;11.876;2023-03-16T06:31:09;6.10;;;3.90;;
14584;SDS011;7379;51.506;11.876;2023-03-16T06:33:36;6.20;;;4.10;;
14584;SDS011;7379;51.506;11.876;2023-03-16T06:36:03;5.60;;;3.90;;
14584;SDS011;7379;51.506;11.876;2023-03-16T06:38:30;6.73;;;4.27;;
14584;SDS011;7379;51.506;11.876;2023-03-16T06:40:57;6.37;;;4.60;;
14584;SDS011;7379;51.506;11.876;2023-03-16T06:43:24;7.13;;;4.40;;
14584;SDS011;7379;51.506;11.876;2023-03-16T06:45:52;5.70;;;4.40;;
14584;SDS011;7379;51.506;11.876;2023-03-16T06:48:19;4.77;;;4.27;;
14584;SDS011;7379;51.506;11.876;2023-03-16T06:50:46;6.63;;;4.20;;
14584;SDS011;7379;51.506;11.876;2023-03-16T06:53:13;6.83;;;4.40;;
14584;SDS011;7379;51.506;11.876;2023-03-16T06:55:40;7.27;;;4.47;;
14584;SDS011;7379;51.506;11.876;2023-03-16T06:58:07;5.83;;;4.20;;
14584;SDS011;7379;51.506;11.876;2023-03-16T07:00:34;6.53;;;4.20;;
14584;SDS011;7379;51.506;11.876;2023-03-16T07:03:03;5.17;;;4.03;;
14584;SDS011;7379;51.506;11.876;2023-03-16T07:05:30;6.00;;;4.00;;
14584;SDS011;7379;51.506;11.876;2023-03-16T07:07:57;5.40;;;4.13;;
14584;SDS011;7379;51.506;11.876;2023-03-16T07:10:24;5.63;;;4.20;;
14584;SDS011;7379;51.506;11.876;2023-03-16T07:12:51;7.80;;;4.20;;
14584;SDS011;7379;51.506;11.876;2023-03-16T07:15:19;6.53;;;4.17;;
14584;SDS011;7379;51.506;11.876;2023-03-16T07:17:46;4.90;;;4.20;;
14584;SDS011;7379;51.506;11.876;2023-03-16T07:20:14;8.93;;;4.57;;
14584;SDS011;7379;51.506;11.876;2023-03-16T07:22:41;6.47;;;4.30;;
14584;SDS011;7379;51.506;11.876;2023-03-16T07:25:09;4.70;;;3.87;;
14584;SDS011;7379;51.506;11.876;2023-03-16T07:27:38;7.20;;;4.40;;
14584;SDS011;7379;51.506;11.876;2023-03-16T07:30:08;7.57;;;3.73;;
14584;SDS011;7379;51.506;11.876;2023-03-16T07:32:38;5.63;;;3.80;;
14584;SDS011;7379;51.506;11.876;2023-03-16T07:35:05;7.53;;;4.30;;
14584;SDS011;7379;51.506;11.876;2023-03-16T07:37:34;6.07;;;3.97;;
14584;SDS011;7379;51.506;11.876;2023-03-16T07:40:02;6.23;;;4.03;;
14584;SDS011;7379;51.506;11.876;2023-03-16T07:42:33;5.97;;;4.10;;
14584;SDS011;7379;51.506;11.876;2023-03-16T07:45:00;6.20;;;4.17;;
14584;SDS011;7379;51.506;11.876;2023-03-16T07:47:27;4.67;;;3.60;;
14584;SDS011;7379;51.506;11.876;2023-03-16T07:49:54;4.77;;;3.73;;
14584;SDS011;7379;51.506;11.876;2023-03-16T07:52:21;6.40;;;4.00;;
14584;SDS011;7379;51.506;11.876;2023-03-16T07:54:50;5.00;;;3.70;;
14584;SDS011;7379;51.506;11.876;2023-03-16T07:57:17;5.73;;;4.30;;
14584;SDS011;7379;51.506;11.876;2023-03-16T07:59:43;6.53;;;4.00;;
14584;SDS011;7379;51.506;11.876;2023-03-16T08:02:11;5.47;;;3.57;;
14584;SDS011;7379;51.506;11.876;2023-03-16T08:04:39;6.27;;;3.50;;
14584;SDS011;7379;51.506;11.876;2023-03-16T08:07:07;5.13;;;3.60;;
14584;SDS011;7379;51.506;11.876;2023-03-16T08:09:34;7.33;;;4.17;;
14584;SDS011;7379;51.506;11.876;2023-03-16T08:12:04;8.67;;;3.33;;
14584;SDS011;7379;51.506;11.876;2023-03-16T08:14:31;4.53;;;3.47;;
14584;SDS011;7379;51.506;11.876;2023-03-16T08:16:59;4.43;;;3.40;;
14584;SDS011;7379;51.506;11.876;2023-03-16T08:19:26;4.87;;;3.43;;
14584;SDS011;7379;51.506;11.876;2023-03-16T08:21:54;4.90;;;3.50;;
14584;SDS011;7379;51.506;11.876;2023-03-16T08:24:22;7.83;;;3.70;;
14584;SDS011;7379;51.506;11.876;2023-03-16T08:26:49;5.13;;;3.43;;
14584;SDS011;7379;51.506;11.876;2023-03-16T08:29:17;7.70;;;3.57;;
14584;SDS011;7379;51.506;11.876;2023-03-16T08:31:45;6.17;;;3.60;;
14584;SDS011;7379;51.506;11.876;2023-03-16T08:34:11;4.03;;;3.10;;
14584;SDS011;7379;51.506;11.876;2023-03-16T08:36:40;5.30;;;3.33;;
14584;SDS011;7379;51.506;11.876;2023-03-16T08:39:07;5.90;;;3.63;;
14584;SDS011;7379;51.506;11.876;2023-03-16T08:41:34;7.63;;;3.80;;
14584;SDS011;7379;51.506;11.876;2023-03-16T08:44:01;6.57;;;3.40;;
14584;SDS011;7379;51.506;11.876;2023-03-16T08:46:30;6.67;;;3.43;;
14584;SDS011;7379;51.506;11.876;2023-03-16T08:48:58;7.57;;;3.20;;
14584;SDS011;7379;51.506;11.876;2023-03-16T08:51:25;8.03;;;3.50;;
14584;SDS011;7379;51.506;11.876;2023-03-16T08:53:53;8.57;;;3.30;;
14584;SDS011;7379;51.506;11.876;2023-03-16T08:56:20;4.83;;;2.93;;
14584;SDS011;7379;51.506;11.876;2023-03-16T08:58:47;5.37;;;3.00;;
14584;SDS011;7379;51.506;11.876;2023-03-16T09:01:15;4.33;;;2.90;;
14584;SDS011;7379;51.506;11.876;2023-03-16T09:03:45;5.67;;;3.10;;
14584;SDS011;7379;51.506;11.876;2023-03-16T09:06:13;4.63;;;2.77;;
14584;SDS011;7379;51.506;11.876;2023-03-16T09:08:41;8.50;;;3.07;;
14584;SDS011;7379;51.506;11.876;2023-03-16T09:11:10;6.07;;;2.83;;
14584;SDS011;7379;51.506;11.876;2023-03-16T09:13:39;5.87;;;2.70;;
14584;SDS011;7379;51.506;11.876;2023-03-16T09:16:07;5.50;;;2.77;;
14584;SDS011;7379;51.506;11.876;2023-03-16T09:18:36;5.60;;;3.00;;
14584;SDS011;7379;51.506;11.876;2023-03-16T09:21:06;6.40;;;3.00;;
14584;SDS011;7379;51.506;11.876;2023-03-16T09:23:37;4.20;;;2.80;;
14584;SDS011;7379;51.506;11.876;2023-03-16T09:26:06;4.93;;;2.77;;
14584;SDS011;7379;51.506;11.876;2023-03-16T09:28:33;4.30;;;2.70;;
14584;SDS011;7379;51.506;11.876;2023-03-16T09:31:03;4.57;;;2.70;;
14584;SDS011;7379;51.506;11.876;2023-03-16T09:33:31;4.73;;;2.60;;
14584;SDS011;7379;51.506;11.876;2023-03-16T09:35:58;6.40;;;2.50;;
14584;SDS011;7379;51.506;11.876;2023-03-16T09:38:27;7.17;;;2.83;;
14584;SDS011;7379;51.506;11.876;2023-03-16T09:40:56;3.97;;;2.30;;
14584;SDS011;7379;51.506;11.876;2023-03-16T09:43:31;8.00;;;2.67;;
14584;SDS011;7379;51.506;11.876;2023-03-16T09:46:10;6.67;;;2.47;;
14584;SDS011;7379;51.506;11.876;2023-03-16T09:48:41;3.90;;;2.47;;
14584;SDS011;7379;51.506;11.876;2023-03-16T09:51:12;5.33;;;2.47;;
14584;SDS011;7379;51.506;11.876;2023-03-16T09:53:45;3.90;;;2.30;;
14584;SDS011;7379;51.506;11.876;2023-03-16T09:56:14;5.60;;;2.57;;
14584;SDS011;7379;51.506;11.876;2023-03-16T09:58:47;3.70;;;2.57;;
14584;SDS011;7379;51.506;11.876;2023-03-16T10:01:15;3.77;;;2.30;;
14584;SDS011;7379;51.506;11.876;2023-03-16T10:04:01;3.53;;;2.47;;
14584;SDS011;7379;51.506;11.876;2023-03-16T10:06:42;4.47;;;2.60;;
14584;SDS011;7379;51.506;11.876;2023-03-16T10:09:19;5.30;;;2.50;;
14584;SDS011;7379;51.506;11.876;2023-03-16T10:11:55;4.40;;;2.30;;
14584;SDS011;7379;51.506;11.876;2023-03-16T10:14:27;4.37;;;2.37;;
14584;SDS011;7379;51.506;11.876;2023-03-16T10:16:59;3.30;;;2.37;;
14584;SDS011;7379;51.506;11.876;2023-03-16T10:19:30;4.70;;;2.40;;
14584;SDS011;7379;51.506;11.876;2023-03-16T10:22:08;5.10;;;2.20;;
14584;SDS011;7379;51.506;11.876;2023-03-16T10:24:46;4.27;;;2.23;;
14584;SDS011;7379;51.506;11.876;2023-03-16T10:27:22;4.57;;;2.47;;
14584;SDS011;7379;51.506;11.876;2023-03-16T10:29:53;4.93;;;2.30;;
14584;SDS011;7379;51.506;11.876;2023-03-16T10:32:20;3.73;;;2.40;;
14584;SDS011;7379;51.506;11.876;2023-03-16T10:34:51;3.33;;;2.23;;
14584;SDS011;7379;51.506;11.876;2023-03-16T10:37:21;5.10;;;2.53;;
14584;SDS011;7379;51.506;11.876;2023-03-16T10:39:52;4.30;;;2.40;;
14584;SDS011;7379;51.506;11.876;2023-03-16T10:42:20;3.53;;;2.47;;
14584;SDS011;7379;51.506;11.876;2023-03-16T10:44:47;5.20;;;2.53;;
14584;SDS011;7379;51.506;11.876;2023-03-16T10:47:18;4.30;;;2.40;;
14584;SDS011;7379;51.506;11.876;2023-03-16T10:49:48;4.03;;;2.40;;
14584;SDS011;7379;51.506;11.876;2023-03-16T10:52:17;3.30;;;2.33;;
14584;SDS011;7379;51.506;11.876;2023-03-16T10:54:49;4.83;;;2.50;;
14584;SDS011;7379;51.506;11.876;2023-03-16T10:57:25;2.13;;;1.93;;
14584;SDS011;7379;51.506;11.876;2023-03-16T10:59:58;2.70;;;2.17;;
14584;SDS011;7379;51.506;11.876;2023-03-16T11:02:39;2.90;;;2.10;;
14584;SDS011;7379;51.506;11.876;2023-03-16T11:05:10;3.90;;;2.17;;
14584;SDS011;7379;51.506;11.876;2023-03-16T11:07:50;3.77;;;1.87;;
14584;SDS011;7379;51.506;11.876;2023-03-16T11:10:27;2.97;;;2.00;;
14584;SDS011;7379;51.506;11.876;2023-03-16T11:13:00;3.30;;;2.00;;
14584;SDS011;7379;51.506;11.876;2023-03-16T11:15:32;5.23;;;2.30;;
14584;SDS011;7379;51.506;11.876;2023-03-16T11:18:01;4.23;;;2.10;;
14584;SDS011;7379;51.506;11.876;2023-03-16T11:20:29;3.23;;;2.10;;
14584;SDS011;7379;51.506;11.876;2023-03-16T11:22:58;3.00;;;1.93;;
14584;SDS011;7379;51.506;11.876;2023-03-16T11:25:30;4.37;;;2.27;;
14584;SDS011;7379;51.506;11.876;2023-03-16T11:28:05;3.83;;;2.00;;
14584;SDS011;7379;51.506;11.876;2023-03-16T11:30:39;3.43;;;2.17;;
14584;SDS011;7379;51.506;11.876;2023-03-16T11:33:10;3.10;;;1.90;;
14584;SDS011;7379;51.506;11.876;2023-03-16T11:35:42;4.30;;;2.10;;
14584;SDS011;7379;51.506;11.876;2023-03-16T11:38:16;4.33;;;2.13;;
14584;SDS011;7379;51.506;11.876;2023-03-16T11:40:49;4.13;;;2.37;;
14584;SDS011;7379;51.506;11.876;2023-03-16T11:43:26;4.10;;;2.20;;
14584;SDS011;7379;51.506;11.876;2023-03-16T11:46:14;3.30;;;2.10;;
14584;SDS011;7379;51.506;11.876;2023-03-16T11:48:48;4.07;;;2.30;;
14584;SDS011;7379;51.506;11.876;2023-03-16T11:51:28;2.93;;;2.10;;
14584;SDS011;7379;51.506;11.876;2023-03-16T11:54:03;4.67;;;2.40;;
14584;SDS011;7379;51.506;11.876;2023-03-16T11:56:42;4.03;;;2.30;;
14584;SDS011;7379;51.506;11.876;2023-03-16T11:59:25;3.60;;;2.20;;
14584;SDS011;7379;51.506;11.876;2023-03-16T12:02:09;2.70;;;2.30;;
14584;SDS011;7379;51.506;11.876;2023-03-16T12:05:07;2.93;;;2.03;;
14584;SDS011;7379;51.506;11.876;2023-03-16T12:07:56;4.57;;;2.50;;
14584;SDS011;7379;51.506;11.876;2023-03-16T12:10:35;3.47;;;2.10;;
14584;SDS011;7379;51.506;11.876;2023-03-16T12:13:15;2.80;;;2.00;;
14584;SDS011;7379;51.506;11.876;2023-03-16T12:15:54;3.30;;;2.37;;
14584;SDS011;7379;51.506;11.876;2023-03-16T12:18:26;5.97;;;2.20;;
14584;SDS011;7379;51.506;11.876;2023-03-16T12:21:01;3.07;;;2.17;;
14584;SDS011;7379;51.506;11.876;2023-03-16T12:23:31;3.10;;;2.33;;
14584;SDS011;7379;51.506;11.876;2023-03-16T12:26:02;3.40;;;2.50;;
14584;SDS011;7379;51.506;11.876;2023-03-16T12:28:30;3.93;;;2.43;;
14584;SDS011;7379;51.506;11.876;2023-03-16T12:33:41;3.30;;;2.03;;
14584;SDS011;7379;51.506;11.876;2023-03-16T12:39:11;3.00;;;1.97;;
14584;SDS011;7379;51.506;11.876;2023-03-16T12:41:44;3.43;;;2.10;;
14584;SDS011;7379;51.506;11.876;2023-03-16T12:44:25;3.53;;;2.03;;
14584;SDS011;7379;51.506;11.876;2023-03-16T12:47:01;3.83;;;2.37;;
14584;SDS011;7379;51.506;11.876;2023-03-16T12:49:33;4.13;;;1.93;;
14584;SDS011;7379;51.506;11.876;2023-03-16T12:52:05;3.40;;;2.20;;
14584;SDS011;7379;51.506;11.876;2023-03-16T12:54:33;2.53;;;2.00;;
14584;SDS011;7379;51.506;11.876;2023-03-16T12:57:01;3.20;;;2.00;;
14584;SDS011;7379;51.506;11.876;2023-03-16T12:59:36;3.13;;;2.10;;
14584;SDS011;7379;51.506;11.876;2023-03-16T13:02:07;2.63;;;1.87;;
14584;SDS011;7379;51.506;11.876;2023-03-16T13:04:39;3.33;;;2.10;;
14584;SDS011;7379;51.506;11.876;2023-03-16T13:07:09;3.37;;;2.33;;
14584;SDS011;7379;51.506;11.876;2023-03-16T13:09:43;3.10;;;2.20;;
14584;SDS011;7379;51.506;11.876;2023-03-16T13:12:20;2.47;;;2.00;;
14584;SDS011;7379;51.506;11.876;2023-03-16T13:14:51;3.67;;;2.33;;
14584;SDS011;7379;51.506;11.876;2023-03-16T13:17:21;2.70;;;1.80;;
14584;SDS011;7379;51.506;11.876;2023-03-16T13:19:57;4.77;;;2.20;;
14584;SDS011;7379;51.506;11.876;2023-03-16T13:22:26;4.03;;;2.23;;
14584;SDS011;7379;51.506;11.876;2023-03-16T13:24:55;2.83;;;1.90;;
14584;SDS011;7379;51.506;11.876;2023-03-16T13:27:36;3.13;;;2.20;;
14584;SDS011;7379;51.506;11.876;2023-03-16T13:30:15;2.97;;;2.00;;
14584;SDS011;7379;51.506;11.876;2023-03-16T13:32:44;2.90;;;1.87;;
14584;SDS011;7379;51.506;11.876;2023-03-16T13:35:12;2.00;;;1.80;;
14584;SDS011;7379;51.506;11.876;2023-03-16T13:37:40;3.20;;;2.00;;
14584;SDS011;7379;51.506;11.876;2023-03-16T13:40:15;2.93;;;1.93;;
14584;SDS011;7379;51.506;11.876;2023-03-16T13:42:45;2.90;;;2.00;;
14584;SDS011;7379;51.506;11.876;2023-03-16T13:45:17;4.30;;;1.90;;
14584;SDS011;7379;51.506;11.876;2023-03-16T13:47:46;2.50;;;2.00;;
14584;SDS011;7379;51.506;11.876;2023-03-16T13:50:14;3.90;;;2.03;;
14584;SDS011;7379;51.506;11.876;2023-03-16T13:52:43;2.43;;;1.80;;
14584;SDS011;7379;51.506;11.876;2023-03-16T13:55:20;3.83;;;2.00;;
14584;SDS011;7379;51.506;11.876;2023-03-16T13:57:52;4.03;;;2.00;;
14584;SDS011;7379;51.506;11.876;2023-03-16T14:00:21;3.23;;;1.87;;
14584;SDS011;7379;51.506;11.876;2023-03-16T14:02:51;3.83;;;2.20;;
14584;SDS011;7379;51.506;11.876;2023-03-16T14:05:21;4.93;;;2.10;;
14584;SDS011;7379;51.506;11.876;2023-03-16T14:07:50;3.23;;;2.00;;
14584;SDS011;7379;51.506;11.876;2023-03-16T14:10:18;3.13;;;2.00;;
14584;SDS011;7379;51.506;11.876;2023-03-16T14:12:50;3.77;;;2.10;;
14584;SDS011;7379;51.506;11.876;2023-03-16T14:15:17;2.13;;;1.80;;
14584;SDS011;7379;51.506;11.876;2023-03-16T14:17:46;3.30;;;1.90;;
14584;SDS011;7379;51.506;11.876;2023-03-16T14:20:16;2.77;;;1.90;;
14584;SDS011;7379;51.506;11.876;2023-03-16T14:22:45;2.73;;;1.90;;
14584;SDS011;7379;51.506;11.876;2023-03-16T14:25:15;3.07;;;2.00;;
14584;SDS011;7379;51.506;11.876;2023-03-16T14:27:46;3.30;;;2.07;;
14584;SDS011;7379;51.506;11.876;2023-03-16T14:30:14;3.33;;;1.87;;
14584;SDS011;7379;51.506;11.876;2023-03-16T14:32:54;4.47;;;2.23;;
14584;SDS011;7379;51.506;11.876;2023-03-16T14:35:24;2.93;;;2.10;;
14584;SDS011;7379;51.506;11.876;2023-03-16T14:37:52;3.13;;;2.10;;
14584;SDS011;7379;51.506;11.876;2023-03-16T14:40:22;3.70;;;2.20;;
14584;SDS011;7379;51.506;11.876;2023-03-16T14:42:51;3.40;;;2.33;;
14584;SDS011;7379;51.506;11.876;2023-03-16T14:45:19;3.63;;;2.20;;
14584;SDS011;7379;51.506;11.876;2023-03-16T14:47:47;4.30;;;2.30;;
14584;SDS011;7379;51.506;11.876;2023-03-16T14:50:21;3.10;;;2.07;;
14584;SDS011;7379;51.506;11.876;2023-03-16T14:52:49;3.83;;;1.93;;
14584;SDS011;7379;51.506;11.876;2023-03-16T14:55:19;3.80;;;1.93;;
14584;SDS011;7379;51.506;11.876;2023-03-16T14:57:47;4.70;;;2.27;;
14584;SDS011;7379;51.506;11.876;2023-03-16T15:00:16;3.67;;;2.30;;
14584;SDS011;7379;51.506;11.876;2023-03-16T15:02:47;3.07;;;1.83;;
14584;SDS011;7379;51.506;11.876;2023-03-16T15:05:26;2.33;;;1.80;;
14584;SDS011;7379;51.506;11.876;2023-03-16T15:07:59;4.73;;;2.70;;